createdAt,value
2022-12-19T00:00:36.692Z,73.23
2022-12-19T00:03:24.678Z,73.20
2022-12-19T00:05:52.819Z,73.06
2022-12-19T00:08:20.734Z,73.12
2022-12-19T00:11:00.893Z,73.11
2022-12-19T00:13:31.199Z,73.05
2022-12-19T00:16:09.306Z,73.07
2022-12-19T00:18:39.818Z,72.97
2022-12-19T00:21:09.388Z,72.78
2022-12-19T00:23:37.744Z,72.81
2022-12-19T00:26:11.660Z,72.72
2022-12-19T00:28:41.332Z,72.70
2022-12-19T00:31:10.693Z,72.81
2022-12-19T00:33:42.587Z,72.80
2022-12-19T00:36:16.855Z,72.65
2022-12-19T00:38:52.326Z,72.61
2022-12-19T00:41:23.396Z,72.51
2022-12-19T00:44:00.850Z,72.51
2022-12-19T00:46:31.030Z,72.23
2022-12-19T00:48:59.798Z,72.14
2022-12-19T00:51:30.279Z,72.31
2022-12-19T00:53:58.852Z,72.39
2022-12-19T00:56:30.198Z,72.39
2022-12-19T00:58:58.865Z,72.23
2022-12-19T01:01:34.776Z,72.31
2022-12-19T01:04:27.712Z,72.33
2022-12-19T01:06:52.883Z,72.36
2022-12-19T01:09:22.715Z,72.42
2022-12-19T01:12:08.991Z,72.48
2022-12-19T01:14:36.944Z,72.47
2022-12-19T01:17:04.849Z,72.44
2022-12-19T01:19:32.787Z,72.43
2022-12-19T01:22:00.750Z,72.47
2022-12-19T01:24:29.084Z,72.39
2022-12-19T01:26:56.992Z,72.31
2022-12-19T01:29:25.004Z,72.40
2022-12-19T01:31:52.909Z,72.46
2022-12-19T01:34:20.812Z,72.37
2022-12-19T01:36:48.722Z,72.29
2022-12-19T01:39:16.611Z,72.34
2022-12-19T01:41:44.460Z,72.10
2022-12-19T01:44:12.390Z,72.06
2022-12-19T01:46:45.459Z,72.04
2022-12-19T01:49:34.941Z,72.12
2022-12-19T01:52:07.778Z,72.06
2022-12-19T01:54:40.274Z,71.95
2022-12-19T01:57:13.792Z,71.87
2022-12-19T01:59:50.316Z,71.80
2022-12-19T02:02:30.425Z,71.78
2022-12-19T02:04:58.816Z,71.88
2022-12-19T02:07:27.295Z,71.86
2022-12-19T02:09:57.734Z,71.79
2022-12-19T02:12:35.827Z,71.74
2022-12-19T02:15:06.379Z,71.69
2022-12-19T02:17:52.632Z,71.69
2022-12-19T02:21:06.273Z,71.65
2022-12-19T02:23:58.524Z,71.58
2022-12-19T02:26:32.975Z,71.44
2022-12-19T02:29:09.717Z,71.46
2022-12-19T02:31:49.021Z,71.51
2022-12-19T02:34:42.734Z,71.37
2022-12-19T02:37:20.815Z,71.29
2022-12-19T02:40:02.872Z,71.16
2022-12-19T02:42:35.245Z,71.13
2022-12-19T02:45:08.077Z,71.00
2022-12-19T02:47:38.466Z,71.04
2022-12-19T02:50:08.154Z,71.00
2022-12-19T02:52:36.116Z,71.01
2022-12-19T02:55:07.979Z,71.10
2022-12-19T02:57:51.280Z,71.00
2022-12-19T03:00:22.605Z,71.02
2022-12-19T03:03:01.217Z,70.80
2022-12-19T03:05:35.936Z,70.92
2022-12-19T03:08:28.813Z,70.83
2022-12-19T03:11:06.418Z,70.99
2022-12-19T03:13:58.610Z,70.83
2022-12-19T03:16:27.087Z,70.88
2022-12-19T03:18:56.621Z,70.96
2022-12-19T03:21:29.621Z,70.93
2022-12-19T03:23:58.856Z,70.95
2022-12-19T03:26:31.240Z,70.99
2022-12-19T03:29:10.995Z,70.95
2022-12-19T03:31:39.840Z,70.93
2022-12-19T03:34:18.350Z,70.92
2022-12-19T03:36:53.496Z,70.85
2022-12-19T03:39:23.555Z,70.78
2022-12-19T03:42:11.146Z,70.85
2022-12-19T03:44:42.390Z,70.79
2022-12-19T03:47:21.249Z,70.66
2022-12-19T03:49:50.079Z,70.61
2022-12-19T03:52:39.874Z,70.71
2022-12-19T03:55:26.686Z,70.80
2022-12-19T03:58:10.543Z,70.72
2022-12-19T04:00:43.665Z,70.64
2022-12-19T04:03:12.143Z,70.55
2022-12-19T04:05:42.065Z,70.58
2022-12-19T04:08:12.146Z,70.46
2022-12-19T04:10:47.677Z,70.45
2022-12-19T04:13:21.541Z,70.50
2022-12-19T04:16:19.016Z,70.52
2022-12-19T04:18:57.195Z,70.53
2022-12-19T04:21:36.860Z,70.51
2022-12-19T04:24:11.687Z,70.41
2022-12-19T04:26:41.384Z,70.45
2022-12-19T04:29:13.893Z,70.52
2022-12-19T04:31:43.502Z,71.19
2022-12-19T04:34:11.352Z,72.19
2022-12-19T04:36:39.298Z,72.30
2022-12-19T04:39:07.295Z,72.12
2022-12-19T04:41:35.172Z,71.35
2022-12-19T04:44:03.150Z,71.14
2022-12-19T04:46:31.154Z,71.12
2022-12-19T04:48:59.089Z,70.98
2022-12-19T04:51:26.961Z,70.90
2022-12-19T04:53:54.909Z,70.97
2022-12-19T04:56:23.170Z,70.93
2022-12-19T04:58:59.382Z,70.92
2022-12-19T05:01:28.050Z,70.87
2022-12-19T05:04:01.278Z,71.06
2022-12-19T05:06:32.108Z,70.99
2022-12-19T05:09:00.044Z,70.99
2022-12-19T05:11:27.962Z,71.02
2022-12-19T05:13:55.931Z,70.89
2022-12-19T05:16:23.861Z,70.89
2022-12-19T05:18:53.233Z,70.90
2022-12-19T05:21:23.023Z,70.77
2022-12-19T05:23:51.469Z,70.75
2022-12-19T05:26:19.545Z,70.79
2022-12-19T05:28:47.532Z,70.84
2022-12-19T05:31:19.874Z,70.87
2022-12-19T05:33:48.399Z,70.75
2022-12-19T05:36:17.963Z,70.82
2022-12-19T05:38:45.919Z,70.77
2022-12-19T05:41:17.105Z,70.69
2022-12-19T05:43:49.111Z,71.39
2022-12-19T05:46:17.647Z,71.11
2022-12-19T05:48:45.917Z,70.81
2022-12-19T05:51:14.463Z,70.90
2022-12-19T05:53:42.600Z,70.99
2022-12-19T05:56:11.760Z,71.06
2022-12-19T05:58:41.437Z,71.08
2022-12-19T06:01:13.934Z,71.07
2022-12-19T06:03:42.405Z,71.06
2022-12-19T06:06:13.303Z,71.11
2022-12-19T06:08:42.046Z,71.14
2022-12-19T06:11:11.389Z,71.15
2022-12-19T06:13:40.343Z,71.19
2022-12-19T06:16:12.964Z,71.15
2022-12-19T06:18:44.769Z,71.34
2022-12-19T06:21:16.316Z,71.27
2022-12-19T06:23:45.149Z,71.37
2022-12-19T06:26:19.566Z,71.40
2022-12-19T06:28:50.271Z,71.32
2022-12-19T06:31:19.842Z,71.58
2022-12-19T06:33:48.309Z,72.58
2022-12-19T06:36:20.541Z,72.71
2022-12-19T06:38:49.361Z,72.17
2022-12-19T06:41:36.603Z,71.81
2022-12-19T06:44:07.477Z,72.18
2022-12-19T06:46:37.323Z,71.91
2022-12-19T06:49:05.792Z,71.62
2022-12-19T06:51:34.942Z,71.29
2022-12-19T06:54:03.323Z,71.27
2022-12-19T06:56:39.035Z,71.48
2022-12-19T06:59:07.800Z,71.43
2022-12-19T07:02:05.655Z,71.30
2022-12-19T07:04:41.851Z,71.34
2022-12-19T07:07:09.947Z,71.39
2022-12-19T07:09:37.941Z,71.40
2022-12-19T07:12:06.052Z,71.44
2022-12-19T07:14:34.076Z,71.34
2022-12-19T07:17:03.284Z,71.29
2022-12-19T07:19:32.773Z,71.39
2022-12-19T07:22:03.056Z,71.33
2022-12-19T07:24:31.143Z,71.42
2022-12-19T07:26:59.163Z,71.32
2022-12-19T07:29:27.209Z,71.28
2022-12-19T07:31:55.229Z,71.24
2022-12-19T07:34:23.260Z,71.12
2022-12-19T07:36:51.242Z,71.09
2022-12-19T07:39:19.137Z,71.20
2022-12-19T07:41:47.015Z,71.17
2022-12-19T07:44:16.492Z,71.11
2022-12-19T07:46:45.115Z,71.09
2022-12-19T07:49:14.244Z,71.11
2022-12-19T07:51:44.923Z,71.04
2022-12-19T07:54:13.185Z,70.91
2022-12-19T07:56:41.275Z,70.94
2022-12-19T07:59:09.205Z,70.90
2022-12-19T08:01:37.216Z,70.92
2022-12-19T08:04:05.381Z,70.79
2022-12-19T08:06:39.152Z,70.75
2022-12-19T08:09:09.301Z,70.80
2022-12-19T08:11:37.243Z,70.81
2022-12-19T08:14:05.181Z,70.72
2022-12-19T08:16:43.903Z,70.61
2022-12-19T08:19:17.549Z,70.45
2022-12-19T08:21:45.923Z,70.37
2022-12-19T08:24:13.833Z,70.57
2022-12-19T08:26:47.438Z,70.46
2022-12-19T08:29:15.657Z,70.49
2022-12-19T08:31:43.615Z,70.38
2022-12-19T08:34:11.536Z,70.24
2022-12-19T08:36:39.576Z,70.13
2022-12-19T08:39:07.636Z,70.06
2022-12-19T08:41:35.727Z,69.96
2022-12-19T08:44:03.868Z,70.01
2022-12-19T08:46:31.922Z,70.06
2022-12-19T08:49:01.060Z,70.06
2022-12-19T08:51:29.186Z,70.11
2022-12-19T08:53:57.126Z,69.89
2022-12-19T08:56:25.009Z,69.87
2022-12-19T08:58:53.024Z,70.03
2022-12-19T09:01:23.917Z,69.97
2022-12-19T09:05:22.976Z,70.22
2022-12-19T09:06:40.183Z,70.03
2022-12-19T09:09:08.193Z,69.92
2022-12-19T09:11:36.306Z,69.83
2022-12-19T09:14:15.727Z,69.69
2022-12-19T09:16:49.549Z,69.64
2022-12-19T09:19:18.109Z,69.46
2022-12-19T09:21:46.078Z,69.52
2022-12-19T09:24:14.639Z,69.57
2022-12-19T09:26:44.092Z,69.57
2022-12-19T09:29:19.634Z,69.68
2022-12-19T09:31:55.465Z,69.49
2022-12-19T09:34:36.854Z,69.45
2022-12-19T09:37:08.162Z,69.37
2022-12-19T09:39:36.483Z,69.07
2022-12-19T09:42:04.425Z,69.13
2022-12-19T09:44:44.998Z,69.06
2022-12-19T09:47:23.468Z,68.95
2022-12-19T09:49:52.150Z,68.87
2022-12-19T09:52:31.545Z,68.62
2022-12-19T09:55:01.126Z,68.57
2022-12-19T09:57:52.103Z,68.54
2022-12-19T10:00:22.506Z,68.56
2022-12-19T10:03:07.304Z,68.78
2022-12-19T10:07:06.883Z,68.75
2022-12-19T10:09:15.272Z,68.57
2022-12-19T10:12:38.935Z,68.55
2022-12-19T10:14:51.784Z,68.56
2022-12-19T10:17:38.178Z,68.85
2022-12-19T10:20:06.090Z,68.92
2022-12-19T10:23:00.527Z,68.57
2022-12-19T10:25:53.671Z,68.57
2022-12-19T10:28:38.001Z,68.75
2022-12-19T10:31:30.495Z,68.66
2022-12-19T10:34:13.828Z,68.56
2022-12-19T10:37:26.899Z,68.52
2022-12-19T10:39:53.265Z,68.56
2022-12-19T10:42:47.809Z,68.38
2022-12-19T10:45:19.241Z,68.11
2022-12-19T10:47:49.840Z,67.86
2022-12-19T10:50:22.492Z,67.71
2022-12-19T10:52:54.738Z,67.65
2022-12-19T10:55:40.894Z,67.54
2022-12-19T10:58:20.376Z,67.44
2022-12-19T11:00:54.152Z,67.61
2022-12-19T11:03:22.507Z,67.58
2022-12-19T11:05:57.729Z,67.53
2022-12-19T11:08:31.480Z,67.39
2022-12-19T11:12:10.270Z,66.91
2022-12-19T11:18:30.281Z,67.38
2022-12-19T11:24:04.347Z,67.49
2022-12-19T11:29:18.794Z,67.59
2022-12-19T11:30:05.359Z,67.65
2022-12-19T11:30:09.324Z,67.46
2022-12-19T11:30:37.769Z,67.79
2022-12-19T11:34:15.803Z,67.25
2022-12-19T11:36:50.455Z,67.43
2022-12-19T11:39:26.058Z,67.49
2022-12-19T11:42:20.050Z,67.51
2022-12-19T11:45:02.920Z,67.63
2022-12-19T11:47:38.371Z,67.59
2022-12-19T11:50:21.825Z,67.66
2022-12-19T11:53:05.156Z,67.39
2022-12-19T11:55:46.542Z,67.46
2022-12-19T11:58:14.451Z,67.42
2022-12-19T12:01:05.041Z,67.47
2022-12-19T12:04:24.165Z,67.52
2022-12-19T12:06:54.352Z,67.26
2022-12-19T12:16:32.426Z,67.16
2022-12-19T12:22:10.279Z,67.15
2022-12-19T12:29:21.030Z,67.11
2022-12-19T12:31:17.245Z,67.25
2022-12-19T12:31:22.105Z,67.21
2022-12-19T12:31:42.233Z,67.04
2022-12-19T12:31:44.251Z,66.94
2022-12-19T12:35:38.458Z,66.92
2022-12-19T12:38:12.271Z,66.87
2022-12-19T12:40:24.194Z,66.78
2022-12-19T12:43:21.742Z,66.78
2022-12-19T12:45:49.853Z,66.84
2022-12-19T12:48:26.767Z,66.91
2022-12-19T12:50:58.807Z,66.81
2022-12-19T12:53:38.533Z,66.78
2022-12-19T12:56:10.001Z,66.83
2022-12-19T12:59:03.792Z,67.01
2022-12-19T13:01:40.514Z,66.98
2022-12-19T13:04:11.290Z,66.96
2022-12-19T13:06:51.270Z,66.91
2022-12-19T13:09:37.724Z,66.85
2022-12-19T13:12:43.109Z,66.80
2022-12-19T13:15:22.887Z,66.93
2022-12-19T13:17:50.917Z,66.98
2022-12-19T13:20:19.037Z,67.04
2022-12-19T13:23:19.800Z,67.13
2022-12-19T13:25:53.931Z,66.99
2022-12-19T13:28:22.062Z,67.14
2022-12-19T13:31:19.993Z,67.02
2022-12-19T13:33:55.760Z,67.07
2022-12-19T13:39:49.684Z,67.17
2022-12-19T13:40:10.955Z,67.11
2022-12-19T13:43:20.569Z,67.08
2022-12-19T13:45:53.638Z,67.18
2022-12-19T13:48:36.076Z,67.15
2022-12-19T13:51:07.483Z,67.25
2022-12-19T13:53:35.695Z,67.38
2022-12-19T13:56:05.617Z,67.22
2022-12-19T13:58:42.333Z,67.39
2022-12-19T14:01:20.768Z,67.28
2022-12-19T14:03:51.593Z,67.40
2022-12-19T14:06:26.249Z,67.35
2022-12-19T14:11:28.227Z,67.55
2022-12-19T14:13:39.817Z,67.56
2022-12-19T14:15:13.209Z,67.43
2022-12-19T14:17:48.498Z,67.48
2022-12-19T14:22:02.211Z,67.57
2022-12-19T14:23:12.409Z,67.63
2022-12-19T14:28:17.164Z,67.64
2022-12-19T14:28:54.513Z,67.49
2022-12-19T14:31:25.032Z,67.64
2022-12-19T14:36:49.599Z,67.49
2022-12-19T14:39:22.829Z,67.52
2022-12-19T14:42:31.585Z,67.53
2022-12-19T14:52:35.084Z,67.55
2022-12-19T14:54:05.643Z,67.50
2022-12-19T14:54:20.820Z,67.25
2022-12-19T14:57:25.619Z,67.35
2022-12-19T15:01:08.879Z,67.59
2022-12-19T15:03:25.831Z,67.54
2022-12-19T15:07:05.445Z,67.52
2022-12-19T15:10:58.685Z,67.56
2022-12-19T15:12:39.687Z,67.59
2022-12-19T15:15:36.994Z,67.62
2022-12-19T15:18:19.155Z,67.61
2022-12-19T15:20:47.454Z,67.57
2022-12-19T15:23:21.718Z,67.43
2022-12-19T15:26:08.379Z,67.49
2022-12-19T15:28:43.910Z,67.49
2022-12-19T15:31:38.700Z,67.48
2022-12-19T15:34:37.200Z,67.46
2022-12-19T15:37:06.164Z,67.48
2022-12-19T15:39:34.050Z,67.49
2022-12-19T15:42:02.428Z,67.66
2022-12-19T15:44:44.534Z,67.52
2022-12-19T15:47:25.786Z,67.60
2022-12-19T15:49:53.734Z,67.51
2022-12-19T15:52:22.324Z,67.45
2022-12-19T15:54:51.004Z,67.67
2022-12-19T15:57:36.519Z,67.65
2022-12-19T16:00:16.749Z,67.70
2022-12-19T16:05:33.250Z,67.80
2022-12-19T16:08:01.523Z,67.73
2022-12-19T16:10:29.900Z,67.70
2022-12-19T16:12:58.280Z,67.67
2022-12-19T16:15:32.535Z,67.58
2022-12-19T16:18:03.167Z,67.54
2022-12-19T16:20:36.036Z,67.50
2022-12-19T16:23:04.112Z,67.63
2022-12-19T16:25:40.778Z,67.56
2022-12-19T16:28:17.205Z,67.63
2022-12-19T16:30:45.295Z,67.64
2022-12-19T16:33:33.442Z,67.73
2022-12-19T16:36:04.625Z,67.73
2022-12-19T16:38:33.381Z,67.72
2022-12-19T16:41:04.505Z,67.67
2022-12-19T16:43:37.446Z,67.75
2022-12-19T16:46:07.377Z,67.89
2022-12-19T16:48:38.272Z,67.84
2022-12-19T16:51:17.765Z,67.83
2022-12-19T16:53:46.409Z,67.81
2022-12-19T16:56:31.363Z,67.81
2022-12-19T16:59:02.405Z,67.77
2022-12-19T17:01:30.508Z,67.89
2022-12-19T17:03:58.452Z,67.93
2022-12-19T17:06:26.632Z,67.85
2022-12-19T17:08:54.586Z,67.94
2022-12-19T17:11:26.276Z,67.95
2022-12-19T17:14:02.994Z,67.97
2022-12-19T17:16:31.559Z,68.08
2022-12-19T17:18:59.772Z,68.17
2022-12-19T17:21:27.689Z,68.25
2022-12-19T17:23:55.666Z,68.32
2022-12-19T17:26:23.627Z,68.14
2022-12-19T17:28:51.895Z,68.49
2022-12-19T17:31:26.788Z,68.53
2022-12-19T17:33:57.858Z,68.47
2022-12-19T17:36:34.759Z,68.56
2022-12-19T17:39:33.578Z,68.49
2022-12-19T17:42:13.744Z,68.41
2022-12-19T17:44:41.785Z,68.49
2022-12-19T17:47:17.215Z,68.34
2022-12-19T17:49:45.972Z,68.50
2022-12-19T17:52:18.749Z,68.67
2022-12-19T17:54:47.107Z,68.50
2022-12-19T17:57:16.482Z,68.60
2022-12-19T17:59:46.429Z,68.59
2022-12-19T18:02:26.289Z,68.53
2022-12-19T18:04:55.017Z,68.55
2022-12-19T18:07:23.084Z,68.42
2022-12-19T18:09:50.992Z,68.43
2022-12-19T18:12:19.351Z,68.47
2022-12-19T18:14:47.266Z,68.47
2022-12-19T18:17:27.681Z,68.32
2022-12-19T18:19:55.732Z,68.42
2022-12-19T18:22:23.644Z,68.36
2022-12-19T18:24:51.981Z,68.41
2022-12-19T18:27:19.955Z,68.48
2022-12-19T18:29:47.907Z,68.51
2022-12-19T18:32:20.428Z,68.33
2022-12-19T18:34:48.356Z,68.26
2022-12-19T18:37:16.810Z,68.28
2022-12-19T18:39:45.503Z,68.26
2022-12-19T18:42:21.530Z,68.29
2022-12-19T18:44:49.613Z,68.30
2022-12-19T18:47:25.543Z,68.33
2022-12-19T18:49:53.476Z,68.27
2022-12-19T18:52:21.393Z,68.21
2022-12-19T18:54:49.360Z,68.17
2022-12-19T18:57:17.243Z,68.35
2022-12-19T18:59:45.258Z,68.21
2022-12-19T19:02:27.581Z,68.21
2022-12-19T19:04:56.163Z,68.22
2022-12-19T19:07:24.265Z,68.02
2022-12-19T19:09:52.721Z,68.25
2022-12-19T19:12:42.898Z,68.31
2022-12-19T19:15:11.289Z,68.31
2022-12-19T19:17:40.184Z,68.42
2022-12-19T19:20:08.848Z,68.37
2022-12-19T19:22:36.793Z,68.35
2022-12-19T19:25:05.541Z,68.28
2022-12-19T19:27:33.766Z,68.31
2022-12-19T19:30:01.691Z,68.35
2022-12-19T19:32:29.764Z,68.41
2022-12-19T19:34:57.755Z,68.43
2022-12-19T19:37:27.164Z,68.47
2022-12-19T19:39:55.044Z,68.34
2022-12-19T19:42:22.934Z,68.44
2022-12-19T19:44:50.837Z,68.37
2022-12-19T19:47:25.367Z,68.39
2022-12-19T19:49:53.658Z,68.32
2022-12-19T19:52:21.798Z,68.25
2022-12-19T19:54:49.666Z,68.41
2022-12-19T19:57:17.612Z,68.26
2022-12-19T19:59:45.474Z,68.25
2022-12-19T20:02:13.707Z,68.24
2022-12-19T20:04:45.719Z,68.12
2022-12-19T20:07:13.698Z,68.20
2022-12-19T20:09:41.529Z,68.20
2022-12-19T20:12:09.967Z,68.36
2022-12-19T20:14:37.933Z,68.27
2022-12-19T20:17:05.897Z,68.41
2022-12-19T20:19:33.833Z,68.43
2022-12-19T20:22:02.108Z,68.28
2022-12-19T20:24:30.290Z,68.42
2022-12-19T20:26:59.079Z,68.52
2022-12-19T20:29:27.393Z,68.42
2022-12-19T20:31:56.419Z,68.39
2022-12-19T20:34:24.413Z,68.46
2022-12-19T20:36:52.326Z,68.42
2022-12-19T20:39:22.285Z,68.41
2022-12-19T20:41:51.531Z,68.40
2022-12-19T20:44:24.056Z,68.44
2022-12-19T20:46:53.069Z,68.44
2022-12-19T20:49:21.544Z,68.57
2022-12-19T20:51:49.474Z,68.40
2022-12-19T20:54:18.282Z,68.41
2022-12-19T20:56:46.326Z,68.52
2022-12-19T20:59:14.306Z,68.38
2022-12-19T21:01:42.371Z,68.63
2022-12-19T21:04:10.556Z,68.68
2022-12-19T21:06:39.421Z,68.67
2022-12-19T21:09:07.616Z,68.66
2022-12-19T21:11:36.589Z,68.79
2022-12-19T21:14:05.914Z,68.93
2022-12-19T21:16:34.203Z,68.91
2022-12-19T21:19:02.138Z,68.84
2022-12-19T21:21:30.254Z,68.81
2022-12-19T21:24:02.020Z,68.88
2022-12-19T21:26:30.492Z,68.92
2022-12-19T21:28:59.322Z,68.89
2022-12-19T21:31:29.875Z,68.90
2022-12-19T21:33:59.955Z,68.96
2022-12-19T21:36:29.958Z,68.85
2022-12-19T21:39:00.150Z,68.78
2022-12-19T21:41:28.760Z,68.84
2022-12-19T21:43:57.888Z,68.74
2022-12-19T21:46:28.558Z,68.86
2022-12-19T21:48:57.318Z,68.76
2022-12-19T21:51:30.686Z,68.81
2022-12-19T21:54:00.933Z,68.83
2022-12-19T21:56:39.010Z,68.83
2022-12-19T21:59:12.106Z,68.78
2022-12-19T22:01:41.613Z,68.79
2022-12-19T22:04:16.218Z,68.83
2022-12-19T22:06:44.185Z,68.85
2022-12-19T22:09:19.383Z,68.96
2022-12-19T22:11:47.341Z,68.88
2022-12-19T22:14:16.798Z,68.88
2022-12-19T22:16:44.795Z,68.71
2022-12-19T22:19:17.689Z,68.67
2022-12-19T22:21:46.926Z,68.72
2022-12-19T22:24:16.922Z,68.71
2022-12-19T22:26:45.105Z,68.64
2022-12-19T22:29:15.860Z,68.75
2022-12-19T22:31:44.889Z,68.75
2022-12-19T22:34:15.981Z,68.83
2022-12-19T22:36:44.390Z,68.72
2022-12-19T22:39:14.489Z,69.01
2022-12-19T22:41:42.933Z,68.96
2022-12-19T22:44:28.782Z,68.83
2022-12-19T22:46:56.749Z,68.85
2022-12-19T22:49:24.697Z,68.75
2022-12-19T22:51:52.570Z,68.65
2022-12-19T22:54:20.445Z,68.67
2022-12-19T22:56:51.749Z,68.58
2022-12-19T22:59:19.941Z,68.59
2022-12-19T23:01:48.090Z,68.68
2022-12-19T23:04:17.549Z,68.67
2022-12-19T23:06:45.857Z,68.62
2022-12-19T23:09:16.333Z,68.62
2022-12-19T23:11:47.646Z,68.76
2022-12-19T23:14:17.173Z,68.87
2022-12-19T23:16:45.203Z,68.73
2022-12-19T23:19:15.447Z,68.70
2022-12-19T23:21:43.896Z,68.74
2022-12-19T23:24:12.292Z,68.49
2022-12-19T23:26:40.694Z,68.61
2022-12-19T23:29:12.125Z,68.55
2022-12-19T23:31:43.072Z,68.63
2022-12-19T23:34:11.067Z,68.63
2022-12-19T23:39:27.386Z,68.67
2022-12-19T23:41:55.292Z,68.62
2022-12-19T23:44:23.273Z,68.83
2022-12-19T23:46:51.234Z,68.76
2022-12-19T23:49:19.144Z,68.86
2022-12-19T23:51:47.026Z,68.93
2022-12-19T23:54:14.922Z,68.87
2022-12-19T23:56:42.836Z,68.87
2022-12-19T23:59:10.736Z,68.90
